Asahikawa Airport, Japan

4:48 AM JST on July 31, 2014 (GMT +0900)
Asahikawa (RJEC) Elev 682 ft | 43.67 °N, 142.45 °E | Change Station

Current weather conditions updated 8 hours ago

Cloudy
Cloudy
62 °F
Feels Like 62 °F
N
5
Wind Variable Wind from South
Gusts mph

Today is forecast to be Cooler than yesterday. Chance of afternoon showers.

Today
High -- | Low -- °F
--% Chance of Precip.
Yesterday
High -- | Low -- °F
Precip. -- in
4:17 AM 6:55 PM
Waxing Crescent, 13% visible
Pressure 29.89 in
Visibility 6.2 miles
Clouds Few 5000 ft
Dew Point 61 °F
Humidity 90%
Rainfall 0.00 in
Snow Depth Not available.
UV 0 out of 12
Pollen Not available.
Air Quality Not available.
Flu Activity Not available.
METAR RJEC 301100Z 16003KT 130V200 9999 FEW050 21/16 Q1012

More Conditions Fewer Conditions

Pressure 29.89 in
Visibility 6.2 miles
Clouds Few 5000 ft
Dew Point 61 °F
Humidity 90%
Rainfall 0.00 in
Snow Depth Not available.
UV 0 out of 12
Pollen Not available.
Air Quality Not available.
Flu Activity Not available.
METAR RJEC 301100Z 16003KT 130V200 9999 FEW050 21/16 Q1012

More Conditions Fewer Conditions

10-Day Weather Forecast

Almanac

Astronomy

Jul. 31, 2014 Rise Set
Actual Time 4:17 AM JST 6:55 PM JST
Civil Twilight 3:44 AM JST 7:27 PM JST
Nautical Twilight 3:03 AM JST 8:08 PM JST
Astronomical Twilight 2:16 AM JST 8:55 PM JST
Moon 8:17 AM JST (7/31) 8:38 PM JST (7/31)
Length of Visible Light 15h 43m
Length of Day
14h 37m
Tomorrow will be 2m 15s shorter.
Waxing Crescent, 13% of the Moon is Illuminated
Jul 30
Waxing Crescent
Aug 3
First Quarter
Aug 10
Full
Aug 17
Last Quarter
Aug 25
New

Yesterday's Extremes

Country Highs Country Lows

Community

WunderPhotos

Upload Photos

1,739,168 photos uploaded!

WunderBlogs® & News

Nearby

Snow Depth

Not available.

Earthquake Activity

City Distance Mag. Time & Date
No recent earthquake activity has been reported nearby.
Minimum magnitude displayed is 2.5.

Coastal Water Temperatures

Place Temperature
No Stations Reporting

Nearby Weather Stations

There are no personal weather stations in this area.